Time;durP1;ratioP1;P1;durP2;ratioP2;P2;SDS_P1;SDS_P2;PMS_P1;PMS_P2;Temp;Humidity;BMP_temperature;BMP_pressure;BME280_temperature;BME280_humidity;BME280_pressure;Samples;Min_cycle;Max_cycle;Signal;HPM_P1;HPM_P2
2021/03/14 00:00:09;;;;;;;15.35;3.03;;;6.00;84.00;;;;;;5111638;28;20015;-77
2021/03/14 00:02:35;;;;;;;10.52;2.45;;;6.00;84.40;;;;;;5112918;28;20019;-78
2021/03/14 00:05:01;;;;;;;10.70;2.88;;;6.00;84.20;;;;;;5111274;28;20061;-77
2021/03/14 00:07:27;;;;;;;14.05;1.73;;;5.90;84.30;;;;;;5111371;28;20047;-77
2021/03/14 00:09:52;;;;;;;12.13;2.58;;;5.90;84.50;;;;;;5111345;28;20046;-77
2021/03/14 00:12:18;;;;;;;11.73;2.33;;;5.90;84.50;;;;;;5111103;28;20119;-78
2021/03/14 00:14:43;;;;;;;14.10;3.00;;;5.90;84.40;;;;;;5112311;28;20062;-77
2021/03/14 00:17:09;;;;;;;9.70;2.25;;;5.90;84.50;;;;;;5111329;28;20016;-77
2021/03/14 00:19:35;;;;;;;15.00;2.67;;;5.90;84.40;;;;;;5111421;28;20016;-78
2021/03/14 00:22:00;;;;;;;14.27;2.78;;;5.90;84.40;;;;;;5112546;28;20020;-77
2021/03/14 00:24:26;;;;;;;17.52;2.78;;;5.90;84.50;;;;;;5111366;28;20019;-77
2021/03/14 00:26:51;;;;;;;24.02;3.38;;;5.90;84.40;;;;;;5112341;28;20023;-77
2021/03/14 00:29:17;;;;;;;13.32;2.13;;;5.90;85.00;;;;;;5112804;28;20124;-78
2021/03/14 00:31:43;;;;;;;16.77;3.13;;;5.90;84.50;;;;;;5112383;28;20527;-78
2021/03/14 00:34:08;;;;;;;12.65;2.22;;;5.90;84.50;;;;;;5112733;28;20016;-77
2021/03/14 00:36:34;;;;;;;21.55;2.78;;;5.90;84.20;;;;;;5111242;28;20047;-77
2021/03/14 00:38:59;;;;;;;18.00;2.95;;;5.90;83.90;;;;;;5110986;28;20348;-77
2021/03/14 00:41:25;;;;;;;15.48;2.58;;;6.00;84.00;;;;;;5111130;28;20047;-77
2021/03/14 00:43:50;;;;;;;11.57;2.88;;;5.90;84.10;;;;;;5111037;28;20020;-77
2021/03/14 00:46:16;;;;;;;14.50;2.85;;;5.90;84.00;;;;;;5111203;28;20347;-77
2021/03/14 00:48:42;;;;;;;10.75;2.10;;;6.00;84.00;;;;;;5110917;28;20016;-77
2021/03/14 00:51:07;;;;;;;11.65;2.40;;;6.00;84.20;;;;;;5113766;28;20027;-76
2021/03/14 00:53:33;;;;;;;14.63;2.45;;;6.00;84.00;;;;;;5115077;28;20421;-78
2021/03/14 00:55:59;;;;;;;11.73;2.35;;;6.00;83.70;;;;;;5116253;28;20020;-78
2021/03/14 00:58:24;;;;;;;20.70;3.38;;;6.00;83.50;;;;;;5115076;28;20020;-77
2021/03/14 01:00:50;;;;;;;20.65;3.05;;;6.00;83.80;;;;;;5116273;28;20508;-77
2021/03/14 01:03:15;;;;;;;11.63;2.63;;;6.00;83.90;;;;;;5115141;28;20024;-77
2021/03/14 01:05:41;;;;;;;18.33;2.83;;;6.00;84.00;;;;;;5114466;28;20472;-77
2021/03/14 01:08:06;;;;;;;17.00;2.35;;;6.10;83.80;;;;;;5114925;28;20022;-78
2021/03/14 01:10:32;;;;;;;14.82;2.78;;;6.10;84.40;;;;;;5114864;28;20451;-78
2021/03/14 01:12:58;;;;;;;20.95;2.70;;;6.10;83.60;;;;;;5115817;28;20057;-77
2021/03/14 01:15:23;;;;;;;15.15;2.78;;;6.10;83.50;;;;;;5114938;28;20420;-77
2021/03/14 01:17:49;;;;;;;13.77;3.20;;;6.20;84.40;;;;;;5114501;28;20015;-78
2021/03/14 01:20:17;;;;;;;9.85;2.78;;;6.20;83.30;;;;;;5114675;28;20050;-78
2021/03/14 01:22:43;;;;;;;11.50;2.17;;;6.20;83.10;;;;;;5114399;28;20459;-77
2021/03/14 01:25:10;;;;;;;12.32;2.92;;;6.20;83.60;;;;;;5114480;28;20418;-77
2021/03/14 01:27:36;;;;;;;12.18;1.83;;;6.20;82.50;;;;;;5114511;28;20062;-77
2021/03/14 01:30:04;;;;;;;14.90;2.72;;;6.20;83.00;;;;;;5114477;28;20016;-78
2021/03/14 01:32:30;;;;;;;20.23;2.97;;;6.30;83.00;;;;;;5115956;28;20034;-75
2021/03/14 01:34:56;;;;;;;12.07;2.33;;;6.20;82.70;;;;;;5115549;28;20347;-77
2021/03/14 01:37:23;;;;;;;16.10;3.30;;;6.20;82.90;;;;;;5115808;28;20344;-77
2021/03/14 01:39:49;;;;;;;13.43;2.92;;;6.20;82.70;;;;;;5114036;28;20393;-77
2021/03/14 01:42:25;;;;;;;19.98;4.22;;;6.30;82.40;;;;;;5115546;28;20099;-77
2021/03/14 01:44:50;;;;;;;16.10;3.20;;;6.30;82.60;;;;;;5115060;28;20363;-77
2021/03/14 01:47:16;;;;;;;12.38;2.38;;;6.20;82.60;;;;;;5114208;28;20023;-77
2021/03/14 01:49:42;;;;;;;13.38;2.65;;;6.20;82.40;;;;;;5114103;28;20023;-77
2021/03/14 01:52:07;;;;;;;15.70;2.90;;;6.30;82.80;;;;;;5115307;28;20034;-77
2021/03/14 01:54:34;;;;;;;15.38;2.65;;;6.30;82.70;;;;;;5114210;28;20064;-78
2021/03/14 01:57:00;;;;;;;11.68;2.10;;;6.30;82.40;;;;;;5115585;28;20475;-77
2021/03/14 01:59:27;;;;;;;13.95;2.95;;;6.30;82.60;;;;;;5114197;28;20027;-77
2021/03/14 02:01:53;;;;;;;12.02;2.40;;;6.30;82.70;;;;;;5113464;28;20023;-77
2021/03/14 02:04:19;;;;;;;8.60;2.13;;;6.30;82.50;;;;;;5113192;28;20024;-77
2021/03/14 02:06:44;;;;;;;15.73;3.35;;;6.30;82.10;;;;;;5114961;28;20035;-79
2021/03/14 02:09:10;;;;;;;16.30;3.33;;;6.30;82.20;;;;;;5115069;28;20072;-78
2021/03/14 02:11:40;;;;;;;8.45;2.03;;;6.30;82.10;;;;;;5114904;28;20051;-77
2021/03/14 02:14:07;;;;;;;15.43;2.85;;;6.30;81.80;;;;;;5113433;28;20114;-78
2021/03/14 02:16:38;;;;;;;12.00;2.42;;;6.30;82.30;;;;;;5113263;28;20088;-78
2021/03/14 02:19:04;;;;;;;;;;;6.30;82.20;;;;;;5115087;28;20047;-77
2021/03/14 02:21:34;;;;;;;11.32;2.20;;;6.30;82.40;;;;;;5114877;28;19943;-77
2021/03/14 02:24:05;;;;;;;14.95;2.33;;;6.30;82.30;;;;;;5114366;28;20030;-77
2021/03/14 02:26:31;;;;;;;17.17;3.20;;;6.30;83.10;;;;;;5113309;28;20016;-77
2021/03/14 02:28:57;;;;;;;16.60;2.75;;;6.30;82.60;;;;;;5114284;28;20482;-77
2021/03/14 02:31:25;;;;;;;14.50;2.45;;;6.30;82.40;;;;;;5114822;28;20027;-77
2021/03/14 02:34:07;;;;;;;17.83;2.78;;;6.30;82.80;;;;;;5112887;28;20463;-77
2021/03/14 02:36:36;;;;;;;12.43;2.65;;;6.30;82.90;;;;;;5113259;28;20022;-77
2021/03/14 02:39:04;;;;;;;15.27;3.17;;;6.30;82.70;;;;;;5114604;28;20019;-78
2021/03/14 02:41:30;;;;;;;12.63;2.92;;;6.20;82.70;;;;;;5112844;28;20408;-77
2021/03/14 02:43:57;;;;;;;18.35;3.05;;;6.20;82.70;;;;;;5112576;28;20103;-77
2021/03/14 02:46:23;;;;;;;19.80;2.90;;;6.30;82.80;;;;;;5113172;28;20069;-77
2021/03/14 02:48:49;;;;;;;19.33;2.53;;;6.20;83.40;;;;;;5112692;28;20107;-77
2021/03/14 02:51:15;;;;;;;13.65;2.20;;;6.20;83.10;;;;;;5114291;28;20512;-77
2021/03/14 02:53:42;;;;;;;14.80;2.35;;;6.30;82.90;;;;;;5113915;28;20157;-78
2021/03/14 02:56:08;;;;;;;17.35;2.67;;;6.20;83.00;;;;;;5112623;28;20478;-78
2021/03/14 02:58:35;;;;;;;15.63;2.30;;;6.20;83.20;;;;;;5112755;28;20023;-78
2021/03/14 03:01:02;;;;;;;18.05;2.53;;;6.20;83.10;;;;;;5113878;28;20144;-76
2021/03/14 03:03:28;;;;;;;16.17;2.63;;;6.20;83.00;;;;;;5112736;28;20027;-78
2021/03/14 03:05:58;;;;;;;20.65;3.70;;;6.20;83.90;;;;;;5113621;28;20047;-78
2021/03/14 03:08:25;;;;;;;19.40;2.67;;;6.20;83.20;;;;;;5112566;28;20030;-78
2021/03/14 03:10:52;;;;;;;18.08;2.90;;;6.20;83.00;;;;;;5112275;28;20051;-78
2021/03/14 03:13:18;;;;;;;20.27;3.13;;;6.10;83.00;;;;;;5112408;28;20027;-78
2021/03/14 03:15:45;;;;;;;18.50;3.22;;;6.20;83.10;;;;;;5112526;28;20047;-78
2021/03/14 03:18:13;;;;;;;14.57;3.00;;;6.10;82.40;;;;;;5112183;28;20020;-78
2021/03/14 03:20:39;;;;;;;18.30;3.40;;;6.10;82.70;;;;;;5112450;28;20110;-78
2021/03/14 03:23:05;;;;;;;16.55;2.50;;;6.10;83.10;;;;;;5112238;28;20069;-78
2021/03/14 03:25:31;;;;;;;14.35;3.13;;;6.10;83.00;;;;;;5112704;28;20076;-78
2021/03/14 03:27:56;;;;;;;21.30;3.22;;;6.00;83.00;;;;;;5113484;28;20023;-78
2021/03/14 03:30:25;;;;;;;17.45;2.85;;;6.00;82.60;;;;;;5113310;28;20413;-76
2021/03/14 03:32:51;;;;;;;17.45;2.75;;;6.00;82.50;;;;;;5112999;28;20363;-77
2021/03/14 03:35:19;;;;;;;14.70;3.17;;;5.90;83.50;;;;;;5113180;28;20436;-77
2021/03/14 03:37:49;;;;;;;12.65;2.88;;;5.90;82.70;;;;;;5112099;28;20153;-77
2021/03/14 03:40:17;;;;;;;15.98;5.30;;;5.90;82.80;;;;;;5111958;28;20104;-77
2021/03/14 03:43:05;;;;;;;17.77;4.07;;;5.90;83.00;;;;;;5113212;28;20180;-78
2021/03/14 03:45:34;;;;;;;16.83;3.42;;;5.80;82.80;;;;;;5113166;28;20486;-77
2021/03/14 03:48:01;;;;;;;21.33;4.15;;;5.80;83.00;;;;;;5111663;28;20016;-77
2021/03/14 03:50:28;;;;;;;19.88;4.22;;;5.80;82.90;;;;;;5113273;28;20015;-76
2021/03/14 03:52:55;;;;;;;18.02;4.05;;;5.80;83.00;;;;;;5111288;28;20498;-77
2021/03/14 03:55:22;;;;;;;19.05;3.88;;;5.80;83.00;;;;;;5111549;28;20022;-76
2021/03/14 03:57:48;;;;;;;23.83;4.97;;;5.80;83.30;;;;;;5112949;28;20020;-77
2021/03/14 04:00:17;;;;;;;25.58;5.53;;;5.70;83.40;;;;;;5111073;28;20019;-77
2021/03/14 04:02:43;;;;;;;38.30;9.60;;;5.70;83.60;;;;;;5112559;28;20108;-77
2021/03/14 04:05:11;;;;;;;18.42;3.92;;;5.70;84.10;;;;;;5111290;28;20020;-77
2021/03/14 04:07:39;;;;;;;15.73;4.82;;;5.70;84.30;;;;;;5112617;28;20032;-77
2021/03/14 04:10:08;;;;;;;11.82;3.13;;;5.70;84.40;;;;;;5111082;28;20027;-77
2021/03/14 04:12:34;;;;;;;15.27;3.30;;;5.70;84.50;;;;;;5112554;28;20024;-77
2021/03/14 04:15:01;;;;;;;15.52;4.30;;;5.70;85.00;;;;;;5111079;28;20372;-77
2021/03/14 04:17:27;;;;;;;22.55;4.63;;;5.70;85.20;;;;;;5111467;28;20031;-78
2021/03/14 04:19:55;;;;;;;19.98;5.32;;;5.60;85.30;;;;;;5111626;28;20015;-78
2021/03/14 04:22:23;;;;;;;30.80;7.35;;;5.60;85.70;;;;;;5111460;28;20015;-76
2021/03/14 04:24:50;;;;;;;30.80;6.20;;;5.60;86.60;;;;;;5111228;28;20012;-77
2021/03/14 04:27:17;;;;;;;21.98;5.55;;;5.70;86.10;;;;;;5110566;28;20359;-78
2021/03/14 04:29:44;;;;;;;17.48;4.07;;;5.60;86.30;;;;;;5111337;28;20020;-77
2021/03/14 04:32:11;;;;;;;17.10;3.65;;;5.70;86.40;;;;;;5112335;28;20016;-76
2021/03/14 04:34:38;;;;;;;28.55;5.60;;;5.70;86.60;;;;;;5112843;28;20051;-76
2021/03/14 04:37:05;;;;;;;20.65;5.25;;;5.70;86.80;;;;;;5111381;28;20110;-76
2021/03/14 04:39:31;;;;;;;22.17;4.47;;;5.60;87.00;;;;;;5111056;28;20016;-76
2021/03/14 04:41:57;;;;;;;21.73;5.95;;;5.70;87.10;;;;;;5111075;28;20114;-76
2021/03/14 04:44:25;;;;;;;20.13;4.63;;;5.70;87.30;;;;;;5111355;28;20107;-76
2021/03/14 04:46:51;;;;;;;19.70;3.58;;;5.70;87.30;;;;;;5111274;28;20383;-77
2021/03/14 04:49:16;;;;;;;24.50;5.88;;;5.70;87.30;;;;;;5111920;28;20425;-78
2021/03/14 04:51:45;;;;;;;29.60;5.82;;;5.70;87.30;;;;;;5111026;28;20016;-78
2021/03/14 04:54:12;;;;;;;19.52;4.85;;;5.70;87.40;;;;;;5110947;28;20065;-78
2021/03/14 04:56:40;;;;;;;13.02;3.40;;;5.70;87.50;;;;;;5112469;28;20019;-77
2021/03/14 04:59:11;;;;;;;15.23;2.80;;;5.70;87.60;;;;;;5112399;28;20020;-77
2021/03/14 05:01:40;;;;;;;20.33;4.43;;;5.70;87.70;;;;;;5111258;28;20042;-77
2021/03/14 05:04:08;;;;;;;13.68;3.17;;;5.70;87.70;;;;;;5110796;28;20019;-77
2021/03/14 05:06:35;;;;;;;13.27;2.60;;;5.70;87.80;;;;;;5111891;28;20075;-78
2021/03/14 05:09:02;;;;;;;20.77;4.57;;;5.70;88.00;;;;;;5111750;28;20372;-77
2021/03/14 05:11:29;;;;;;;16.50;3.20;;;5.70;88.10;;;;;;5110984;28;20417;-78
2021/03/14 05:13:55;;;;;;;17.73;3.10;;;5.70;88.10;;;;;;5112181;28;20024;-77
2021/03/14 05:16:21;;;;;;;12.65;4.00;;;5.70;88.20;;;;;;5112016;28;20112;-77
2021/03/14 05:18:47;;;;;;;22.42;5.25;;;5.70;88.20;;;;;;5111197;28;20320;-77
2021/03/14 05:21:14;;;;;;;17.15;3.25;;;5.70;88.30;;;;;;5110649;28;20026;-77
2021/03/14 05:23:40;;;;;;;15.82;3.42;;;5.70;88.90;;;;;;5112093;28;20373;-77
2021/03/14 05:26:11;;;;;;;13.90;3.20;;;5.60;88.30;;;;;;5110882;28;20444;-77
2021/03/14 05:28:38;;;;;;;17.42;3.08;;;5.60;88.40;;;;;;5110577;28;20055;-77
2021/03/14 05:31:27;;;;;;;22.20;3.78;;;5.60;88.60;;;;;;5110644;28;20024;-77
2021/03/14 05:33:53;;;;;;;12.32;3.42;;;5.60;89.40;;;;;;5110734;28;20460;-77
2021/03/14 05:36:18;;;;;;;9.93;2.97;;;5.60;88.80;;;;;;5110505;28;20054;-77
2021/03/14 05:38:44;;;;;;;9.48;2.85;;;5.60;88.90;;;;;;5112790;28;20443;-78
2021/03/14 05:41:10;;;;;;;9.40;3.75;;;5.50;88.70;;;;;;5114048;28;20015;-78
2021/03/14 05:43:37;;;;;;;9.98;3.40;;;5.50;89.00;;;;;;5114180;28;20075;-78
2021/03/14 05:46:03;;;;;;;15.80;4.28;;;5.40;89.30;;;;;;5114050;28;20102;-77
2021/03/14 05:48:28;;;;;;;7.43;3.30;;;5.40;90.00;;;;;;5114143;28;20106;-77
2021/03/14 05:50:54;;;;;;;11.40;3.47;;;5.40;90.20;;;;;;5115755;28;20189;-77
2021/03/14 05:53:20;;;;;;;11.35;3.50;;;5.40;90.30;;;;;;5115025;28;20031;-78
2021/03/14 05:55:49;;;;;;;11.23;4.55;;;5.30;90.40;;;;;;5113956;28;20023;-78
2021/03/14 05:58:14;;;;;;;12.93;4.60;;;5.30;90.70;;;;;;5114956;28;20024;-77
2021/03/14 06:00:41;;;;;;;17.08;5.03;;;5.30;90.50;;;;;;5113957;28;20067;-78
2021/03/14 06:03:10;;;;;;;11.88;4.07;;;5.30;90.90;;;;;;5113550;28;20444;-78
2021/03/14 06:05:36;;;;;;;11.27;4.25;;;5.30;91.00;;;;;;5113236;28;20043;-77
2021/03/14 06:08:03;;;;;;;13.82;5.32;;;5.30;91.10;;;;;;5113622;28;20023;-77
2021/03/14 06:10:29;;;;;;;10.20;4.95;;;5.30;91.30;;;;;;5113704;28;20026;-77
2021/03/14 06:12:54;;;;;;;13.90;6.07;;;5.30;91.50;;;;;;5113519;28;20020;-77
2021/03/14 06:15:20;;;;;;;16.25;5.70;;;5.30;91.80;;;;;;5114965;28;20452;-77
2021/03/14 06:17:46;;;;;;;12.35;5.93;;;5.30;91.60;;;;;;5114594;28;20019;-77
2021/03/14 06:20:33;;;;;;;14.63;5.85;;;5.30;91.80;;;;;;5113363;28;20020;-78
2021/03/14 06:23:12;;;;;;;12.68;6.72;;;5.30;91.90;;;;;;5114937;28;20027;-77
2021/03/14 06:25:39;;;;;;;11.43;5.35;;;5.30;91.80;;;;;;5115032;28;20058;-77
2021/03/14 06:28:05;;;;;;;11.90;5.28;;;5.30;91.80;;;;;;5112991;28;20511;-77
2021/03/14 06:30:32;;;;;;;9.85;5.45;;;5.30;91.80;;;;;;5113369;28;20367;-77
2021/03/14 06:33:20;;;;;;;10.32;5.35;;;5.30;91.70;;;;;;5113093;28;20047;-77
2021/03/14 06:35:51;;;;;;;12.73;5.03;;;5.30;91.70;;;;;;5113262;28;20111;-78
2021/03/14 06:38:29;;;;;;;10.65;5.45;;;5.30;92.00;;;;;;5112914;28;20058;-78
2021/03/14 06:41:06;;;;;;;9.38;4.63;;;5.30;91.70;;;;;;5114164;28;20402;-77
2021/03/14 06:43:41;;;;;;;11.75;5.00;;;5.30;91.70;;;;;;5113154;28;20027;-77
2021/03/14 06:46:30;;;;;;;13.00;5.53;;;5.30;91.60;;;;;;5114059;28;20016;-78
2021/03/14 06:49:10;;;;;;;13.30;5.07;;;5.40;91.70;;;;;;5112826;28;20023;-77
2021/03/14 06:51:38;;;;;;;14.18;5.43;;;5.40;91.70;;;;;;5114115;28;20019;-77
2021/03/14 06:54:32;;;;;;;12.15;5.68;;;5.40;92.00;;;;;;5112747;28;20109;-78
2021/03/14 06:57:03;;;;;;;14.10;5.72;;;5.40;91.70;;;;;;5112823;28;20051;-78
2021/03/14 06:59:30;;;;;;;12.80;5.30;;;5.50;91.70;;;;;;5112694;28;20020;-78
2021/03/14 07:02:04;;;;;;;12.35;5.30;;;5.50;91.90;;;;;;5112806;28;20547;-78
2021/03/14 07:04:43;;;;;;;9.57;4.90;;;5.50;91.70;;;;;;5112720;28;20507;-78
2021/03/14 07:07:28;;;;;;;9.68;5.05;;;5.50;91.50;;;;;;5112013;28;20044;-76
2021/03/14 07:10:05;;;;;;;13.13;5.25;;;5.60;91.60;;;;;;5113822;28;20078;-77
2021/03/14 07:12:42;;;;;;;12.48;5.78;;;5.60;91.50;;;;;;5112456;28;20027;-77
2021/03/14 07:15:16;;;;;;;17.55;6.45;;;5.60;91.40;;;;;;5112578;28;20528;-78
2021/03/14 07:17:49;;;;;;;16.33;6.65;;;5.60;91.50;;;;;;5112581;28;20019;-78
2021/03/14 07:20:18;;;;;;;15.10;6.03;;;5.60;91.50;;;;;;5112403;28;20035;-78
2021/03/14 07:23:08;;;;;;;10.02;7.05;;;5.60;91.50;;;;;;5112561;28;20028;-76
2021/03/14 07:25:39;;;;;;;;;;;5.60;91.60;;;;;;5112955;28;20073;-77
2021/03/14 07:28:06;;;;;;;12.07;7.18;;;5.60;91.70;;;;;;5111843;28;19991;-77
2021/03/14 07:30:31;;;;;;;17.95;8.13;;;5.60;91.60;;;;;;5113276;28;20016;-77
2021/03/14 07:32:57;;;;;;;16.55;9.20;;;5.70;91.70;;;;;;5112151;28;20020;-78
2021/03/14 07:35:23;;;;;;;16.30;8.02;;;5.70;91.70;;;;;;5113325;28;20462;-77
2021/03/14 07:37:51;;;;;;;17.50;9.45;;;5.80;91.60;;;;;;5111749;28;20024;-77
2021/03/14 07:40:19;;;;;;;13.85;9.25;;;5.80;91.60;;;;;;5113098;28;20114;-77
2021/03/14 07:42:46;;;;;;;13.48;8.70;;;5.80;91.70;;;;;;5111933;28;20188;-78
2021/03/14 07:45:14;;;;;;;16.45;9.20;;;5.80;91.70;;;;;;5111719;28;20083;-78
2021/03/14 07:47:42;;;;;;;15.77;9.63;;;5.90;91.70;;;;;;5111802;28;20023;-77
2021/03/14 07:50:12;;;;;;;22.35;10.43;;;5.90;91.70;;;;;;5112893;28;20016;-77
2021/03/14 07:52:40;;;;;;;28.02;11.82;;;5.90;91.60;;;;;;5111696;28;20063;-77
2021/03/14 07:55:11;;;;;;;23.77;10.80;;;6.00;91.70;;;;;;5111866;28;20101;-77
2021/03/14 07:57:43;;;;;;;15.52;9.18;;;6.00;91.60;;;;;;5111664;28;20157;-78
2021/03/14 08:00:24;;;;;;;19.30;10.27;;;6.00;91.50;;;;;;5111046;28;20333;-77
2021/03/14 08:02:53;;;;;;;16.60;9.63;;;6.10;91.50;;;;;;5111488;28;20007;-78
2021/03/14 08:05:39;;;;;;;21.88;9.93;;;6.20;91.50;;;;;;5111067;28;20366;-77
2021/03/14 08:08:08;;;;;;;22.48;11.05;;;6.30;91.60;;;;;;5111451;28;20030;-77
2021/03/14 08:10:38;;;;;;;20.45;10.25;;;6.40;91.30;;;;;;5111384;28;20157;-77
2021/03/14 08:13:05;;;;;;;24.63;11.32;;;6.50;91.10;;;;;;5111505;28;20036;-77
2021/03/14 08:15:34;;;;;;;23.67;11.48;;;6.60;91.00;;;;;;5111245;28;20041;-77
2021/03/14 08:18:01;;;;;;;18.27;10.25;;;6.60;91.10;;;;;;5112883;28;20067;-78
2021/03/14 08:20:37;;;;;;;22.05;10.18;;;6.60;91.10;;;;;;5111128;28;20027;-77
2021/03/14 08:23:05;;;;;;;19.77;10.65;;;6.70;91.20;;;;;;5111145;28;20028;-77
2021/03/14 08:25:57;;;;;;;17.55;9.88;;;6.80;91.30;;;;;;5111176;28;20470;-78
2021/03/14 08:28:22;;;;;;;22.15;9.60;;;6.80;91.00;;;;;;5109212;28;20472;-78
2021/03/14 08:30:50;;;;;;;22.17;9.70;;;6.90;91.10;;;;;;5111285;28;20030;-77
2021/03/14 08:33:18;;;;;;;18.85;9.40;;;6.90;91.00;;;;;;5112633;28;20114;-77
2021/03/14 08:35:44;;;;;;;15.70;8.52;;;7.00;91.00;;;;;;5111160;28;20111;-76
2021/03/14 08:38:33;;;;;;;18.75;8.85;;;7.10;90.60;;;;;;5111170;28;20103;-77
2021/03/14 08:41:24;;;;;;;23.40;9.82;;;7.20;90.40;;;;;;5112626;28;20161;-76
2021/03/14 08:43:51;;;;;;;16.48;7.95;;;7.30;90.40;;;;;;5113027;28;20058;-76
2021/03/14 08:46:17;;;;;;;17.05;7.55;;;7.40;90.00;;;;;;5111046;28;20021;-76
2021/03/14 08:48:43;;;;;;;26.27;8.70;;;7.50;89.40;;;;;;5111388;28;20016;-76
2021/03/14 08:51:10;;;;;;;19.67;7.55;;;7.60;89.20;;;;;;5112842;28;20015;-76
2021/03/14 08:53:37;;;;;;;28.15;10.63;;;7.60;88.60;;;;;;5112614;28;20477;-77
2021/03/14 08:56:04;;;;;;;19.50;7.18;;;7.60;88.90;;;;;;5113007;28;20019;-76
2021/03/14 08:58:30;;;;;;;27.27;9.60;;;7.70;88.50;;;;;;5110838;28;20018;-76
2021/03/14 09:01:02;;;;;;;14.85;7.78;;;7.70;88.30;;;;;;5111625;28;20012;-77
2021/03/14 09:03:28;;;;;;;28.92;10.60;;;7.80;87.70;;;;;;5111380;28;20073;-76
2021/03/14 09:06:15;;;;;;;24.75;8.90;;;7.70;87.90;;;;;;5112416;28;20047;-76
2021/03/14 09:09:03;;;;;;;29.13;10.25;;;7.80;88.40;;;;;;5111181;28;20019;-76
2021/03/14 09:11:46;;;;;;;21.85;8.20;;;7.80;87.80;;;;;;5111159;28;20024;-77
2021/03/14 09:14:27;;;;;;;23.73;7.40;;;7.80;87.30;;;;;;5116040;28;20095;-75
2021/03/14 09:17:14;;;;;;;22.75;8.32;;;7.90;87.20;;;;;;5116476;28;20031;-76
2021/03/14 09:19:46;;;;;;;23.00;8.50;;;8.00;87.20;;;;;;5114021;28;20077;-77
2021/03/14 09:22:23;;;;;;;21.13;8.38;;;8.00;86.80;;;;;;5116175;28;20047;-77
2021/03/14 09:24:51;;;;;;;23.73;8.95;;;8.10;86.30;;;;;;5114775;28;20020;-76
2021/03/14 09:27:18;;;;;;;25.35;7.07;;;8.10;86.60;;;;;;5114076;28;20068;-76
2021/03/14 09:29:49;;;;;;;18.92;6.70;;;8.10;85.70;;;;;;5114531;28;20047;-76
2021/03/14 09:32:21;;;;;;;18.88;5.70;;;8.20;85.90;;;;;;5114228;28;20519;-76
2021/03/14 09:34:50;;;;;;;20.75;6.28;;;8.30;85.40;;;;;;5114384;28;20019;-76
2021/03/14 09:37:30;;;;;;;19.60;5.80;;;8.30;85.50;;;;;;5114274;28;20115;-76
2021/03/14 09:40:18;;;;;;;19.25;6.35;;;8.40;84.00;;;;;;5114266;28;20080;-76
2021/03/14 09:42:49;;;;;;;15.48;4.93;;;8.50;83.00;;;;;;5114385;28;20020;-75
2021/03/14 09:45:20;;;;;;;25.40;7.05;;;8.70;83.10;;;;;;5113878;28;20102;-76
2021/03/14 09:48:19;;;;;;;15.55;5.50;;;8.80;81.80;;;;;;5116051;28;20023;-76
2021/03/14 09:51:03;;;;;;;26.08;7.47;;;8.80;81.90;;;;;;5081312;28;20081;-76
2021/03/14 09:53:31;;;;;;;15.38;5.65;;;8.90;81.50;;;;;;5113835;28;20019;-76
2021/03/14 09:56:03;;;;;;;15.00;4.72;;;8.90;82.70;;;;;;5114046;28;20012;-75
2021/03/14 09:58:30;;;;;;;16.42;4.95;;;8.90;80.70;;;;;;5113733;28;20409;-76
2021/03/14 10:00:57;;;;;;;12.85;4.80;;;8.80;81.60;;;;;;5113992;28;20023;-76
2021/03/14 10:03:29;;;;;;;16.73;5.15;;;8.80;80.30;;;;;;5113818;28;20076;-78
2021/03/14 10:05:59;;;;;;;14.43;4.82;;;8.90;80.70;;;;;;5113811;28;20092;-78
2021/03/14 10:08:29;;;;;;;17.57;5.17;;;8.80;78.60;;;;;;5113998;28;20027;-76
2021/03/14 10:11:04;;;;;;;12.65;3.85;;;8.80;79.70;;;;;;5113742;28;20265;-76
2021/03/14 10:13:31;;;;;;;12.00;4.97;;;8.80;80.30;;;;;;5114019;28;20471;-77
2021/03/14 10:15:59;;;;;;;16.48;4.22;;;8.90;81.30;;;;;;5114080;28;20027;-77
2021/03/14 10:18:29;;;;;;;14.23;4.35;;;9.00;79.60;;;;;;5113943;28;20080;-77
2021/03/14 10:21:26;;;;;;;18.67;4.38;;;9.30;78.30;;;;;;5113607;28;20079;-77
2021/03/14 10:24:18;;;;;;;14.05;4.93;;;9.60;78.80;;;;;;5112811;28;20076;-77
2021/03/14 10:26:57;;;;;;;14.98;4.45;;;9.70;75.60;;;;;;5113575;28;20104;-78
2021/03/14 10:29:31;;;;;;;10.55;4.03;;;9.80;74.90;;;;;;5092640;28;20020;-78
2021/03/14 10:31:57;;;;;;;12.32;4.03;;;9.60;73.80;;;;;;5093101;28;20058;-78
2021/03/14 10:34:24;;;;;;;9.35;3.13;;;9.40;76.50;;;;;;5094612;28;20095;-80
2021/03/14 10:36:51;;;;;;;8.63;2.60;;;9.40;77.40;;;;;;5095091;28;20035;-77
2021/03/14 10:39:30;;;;;;;8.30;2.42;;;9.30;79.40;;;;;;5094243;28;20024;-77
2021/03/14 10:41:56;;;;;;;9.02;2.42;;;9.20;79.90;;;;;;5093477;28;20032;-77
2021/03/14 10:44:24;;;;;;;7.28;1.58;;;9.10;77.80;;;;;;5093852;28;20094;-77
2021/03/14 10:46:54;;;;;;;10.55;2.67;;;9.00;79.00;;;;;;5092551;28;20012;-76
2021/03/14 10:49:23;;;;;;;9.80;2.60;;;8.90;74.60;;;;;;5092348;28;20016;-76
2021/03/14 10:51:50;;;;;;;9.27;2.50;;;8.70;75.90;;;;;;5092403;28;20035;-76
2021/03/14 10:54:17;;;;;;;8.68;2.78;;;8.70;77.70;;;;;;5094234;28;20020;-75
2021/03/14 10:56:50;;;;;;;8.23;2.95;;;8.90;80.50;;;;;;5092705;28;20494;-76
2021/03/14 10:59:29;;;;;;;9.43;2.78;;;9.50;82.20;;;;;;5092937;28;20020;-76
2021/03/14 11:02:19;;;;;;;12.55;3.28;;;10.10;77.40;;;;;;5092505;28;20024;-77
2021/03/14 11:04:58;;;;;;;8.68;2.88;;;10.10;75.60;;;;;;5109756;28;20523;-77
2021/03/14 11:07:29;;;;;;;10.57;2.55;;;10.10;77.70;;;;;;5093575;28;20052;-76
2021/03/14 11:10:14;;;;;;;13.52;3.13;;;9.90;76.70;;;;;;5093515;28;20449;-76
2021/03/14 11:12:41;;;;;;;8.18;2.75;;;9.80;77.10;;;;;;5091982;28;20027;-75
2021/03/14 11:15:19;;;;;;;10.30;2.22;;;9.90;79.70;;;;;;5092440;28;20050;-74
2021/03/14 11:17:45;;;;;;;6.20;1.38;;;10.40;78.40;;;;;;5093813;28;20040;-75
2021/03/14 11:20:11;;;;;;;5.53;1.63;;;10.80;74.00;;;;;;5093420;28;20051;-75
2021/03/14 11:22:36;;;;;;;3.60;1.30;;;11.00;72.60;;;;;;5093420;28;20020;-73
2021/03/14 11:25:02;;;;;;;6.05;1.40;;;11.40;73.80;;;;;;5092229;28;20357;-72
2021/03/14 11:27:28;;;;;;;6.40;1.60;;;11.80;68.10;;;;;;5097766;28;20043;-75
2021/03/14 11:29:53;;;;;;;7.53;1.85;;;11.90;72.10;;;;;;5114281;28;20019;-73
2021/03/14 11:32:19;;;;;;;10.48;2.00;;;11.60;67.20;;;;;;5112570;28;20019;-76
2021/03/14 11:34:45;;;;;;;8.15;1.65;;;11.40;70.50;;;;;;5111865;28;20452;-76
2021/03/14 11:37:12;;;;;;;6.10;1.83;;;11.40;71.00;;;;;;5111517;28;20037;-76
2021/03/14 11:39:38;;;;;;;7.30;2.00;;;11.60;69.80;;;;;;5111885;28;20440;-76
2021/03/14 11:42:04;;;;;;;5.63;1.17;;;11.80;69.30;;;;;;5113525;28;20027;-77
2021/03/14 11:44:30;;;;;;;10.52;1.92;;;11.90;71.40;;;;;;5115411;28;20021;-78
2021/03/14 11:46:56;;;;;;;7.43;1.80;;;12.00;66.40;;;;;;5122110;28;20015;-77
2021/03/14 11:49:22;;;;;;;7.45;2.10;;;11.70;68.00;;;;;;5125073;28;20020;-76
2021/03/14 11:51:49;;;;;;;14.27;2.22;;;11.40;67.10;;;;;;5113855;28;20441;-77
2021/03/14 11:54:17;;;;;;;13.65;2.05;;;11.20;69.40;;;;;;5113919;28;20027;-77
2021/03/14 11:56:46;;;;;;;7.07;1.90;;;11.20;72.30;;;;;;5113391;28;20019;-76
2021/03/14 11:59:13;;;;;;;11.55;2.42;;;11.10;66.80;;;;;;5117488;28;20035;-77
2021/03/14 12:01:39;;;;;;;10.68;2.33;;;11.20;68.20;;;;;;5117675;28;20072;-74
2021/03/14 12:04:05;;;;;;;6.90;2.05;;;11.20;65.20;;;;;;5114337;28;20053;-75
2021/03/14 12:06:32;;;;;;;7.32;1.88;;;11.20;68.50;;;;;;5113301;28;20097;-78
2021/03/14 12:08:58;;;;;;;5.70;1.42;;;11.10;70.20;;;;;;5113127;28;20024;-76
2021/03/14 12:11:24;;;;;;;5.10;1.55;;;11.10;64.50;;;;;;5112606;28;20452;-77
2021/03/14 12:13:50;;;;;;;6.97;1.90;;;11.10;66.20;;;;;;5113984;28;20015;-79
2021/03/14 12:16:15;;;;;;;5.97;1.50;;;11.20;66.40;;;;;;5113982;28;20019;-78
2021/03/14 12:18:41;;;;;;;8.45;1.80;;;11.30;65.50;;;;;;5111698;28;20424;-76
2021/03/14 12:21:08;;;;;;;7.35;1.58;;;11.40;64.80;;;;;;5111833;28;20173;-77
2021/03/14 12:23:36;;;;;;;8.10;1.70;;;11.40;64.10;;;;;;5111150;28;20027;-76
2021/03/14 12:26:02;;;;;;;7.85;1.60;;;11.40;64.60;;;;;;5111706;28;20069;-75
2021/03/14 12:28:28;;;;;;;9.57;2.22;;;11.10;63.90;;;;;;5112486;28;20256;-76
2021/03/14 12:30:54;;;;;;;5.43;1.42;;;10.90;67.10;;;;;;5113020;28;20051;-76
2021/03/14 12:33:20;;;;;;;8.95;1.88;;;10.60;67.00;;;;;;5112310;28;20069;-76
2021/03/14 12:35:45;;;;;;;7.88;1.60;;;10.50;67.50;;;;;;5112434;28;20106;-76
2021/03/14 12:38:11;;;;;;;10.20;2.63;;;10.60;67.50;;;;;;5111771;28;20107;-76
2021/03/14 12:40:37;;;;;;;8.23;1.40;;;10.90;68.10;;;;;;5112467;28;20011;-76
2021/03/14 12:43:03;;;;;;;12.95;2.75;;;10.90;66.80;;;;;;5111330;28;20161;-77
2021/03/14 12:45:28;;;;;;;12.93;2.80;;;10.90;67.60;;;;;;5111127;28;20016;-77
2021/03/14 12:47:54;;;;;;;11.43;2.58;;;10.80;68.40;;;;;;5113990;28;20114;-77
2021/03/14 12:50:20;;;;;;;10.15;3.33;;;10.80;67.70;;;;;;5115575;28;20035;-75
2021/03/14 12:52:46;;;;;;;10.38;2.30;;;10.80;67.40;;;;;;5115139;28;20185;-76
2021/03/14 12:55:12;;;;;;;7.38;1.60;;;10.80;66.60;;;;;;5115668;28;20447;-77
2021/03/14 12:57:38;;;;;;;10.80;2.22;;;11.10;66.70;;;;;;5115544;28;20018;-75